sensor_id;sensor_type;location;lat;lon;timestamp;P1;durP1;ratioP1;P2;durP2;ratioP2
22711;SDS011;11523;50.390;8.072;2024-01-11T00:00:14;60.25;;;32.38;;
22711;SDS011;11523;50.390;8.072;2024-01-11T00:02:40;67.95;;;32.00;;
22711;SDS011;11523;50.390;8.072;2024-01-11T00:05:06;62.85;;;32.50;;
22711;SDS011;11523;50.390;8.072;2024-01-11T00:07:32;65.53;;;33.70;;
22711;SDS011;11523;50.390;8.072;2024-01-11T00:09:58;62.42;;;30.25;;
22711;SDS011;11523;50.390;8.072;2024-01-11T00:12:24;64.25;;;31.25;;
22711;SDS011;11523;50.390;8.072;2024-01-11T00:14:50;67.07;;;32.40;;
22711;SDS011;11523;50.390;8.072;2024-01-11T00:17:16;58.10;;;30.35;;
22711;SDS011;11523;50.390;8.072;2024-01-11T00:19:42;61.95;;;31.55;;
22711;SDS011;11523;50.390;8.072;2024-01-11T00:22:08;60.40;;;30.83;;
22711;SDS011;11523;50.390;8.072;2024-01-11T00:24:34;67.72;;;32.40;;
22711;SDS011;11523;50.390;8.072;2024-01-11T00:27:00;59.92;;;30.80;;
22711;SDS011;11523;50.390;8.072;2024-01-11T00:29:26;58.88;;;31.58;;
22711;SDS011;11523;50.390;8.072;2024-01-11T00:31:53;59.30;;;30.98;;
22711;SDS011;11523;50.390;8.072;2024-01-11T00:34:19;61.33;;;31.45;;
22711;SDS011;11523;50.390;8.072;2024-01-11T00:36:46;64.53;;;32.60;;
22711;SDS011;11523;50.390;8.072;2024-01-11T00:39:12;61.92;;;32.20;;
22711;SDS011;11523;50.390;8.072;2024-01-11T00:41:38;62.60;;;33.05;;
22711;SDS011;11523;50.390;8.072;2024-01-11T00:44:04;64.47;;;31.25;;
22711;SDS011;11523;50.390;8.072;2024-01-11T00:46:30;64.88;;;32.40;;
22711;SDS011;11523;50.390;8.072;2024-01-11T00:48:57;64.13;;;31.52;;
22711;SDS011;11523;50.390;8.072;2024-01-11T00:51:23;62.83;;;31.95;;
22711;SDS011;11523;50.390;8.072;2024-01-11T00:53:49;63.25;;;30.63;;
22711;SDS011;11523;50.390;8.072;2024-01-11T00:56:15;62.83;;;31.25;;
22711;SDS011;11523;50.390;8.072;2024-01-11T00:58:41;67.75;;;32.63;;
22711;SDS011;11523;50.390;8.072;2024-01-11T01:01:11;67.30;;;32.45;;
22711;SDS011;11523;50.390;8.072;2024-01-11T01:03:37;61.45;;;30.20;;
22711;SDS011;11523;50.390;8.072;2024-01-11T01:06:03;58.10;;;29.95;;
22711;SDS011;11523;50.390;8.072;2024-01-11T01:08:29;61.97;;;30.52;;
22711;SDS011;11523;50.390;8.072;2024-01-11T01:10:55;60.88;;;30.15;;
22711;SDS011;11523;50.390;8.072;2024-01-11T01:13:21;60.45;;;30.88;;
22711;SDS011;11523;50.390;8.072;2024-01-11T01:15:47;56.05;;;30.48;;
22711;SDS011;11523;50.390;8.072;2024-01-11T01:18:13;62.80;;;30.48;;
22711;SDS011;11523;50.390;8.072;2024-01-11T01:20:39;62.22;;;29.95;;
22711;SDS011;11523;50.390;8.072;2024-01-11T01:23:05;60.83;;;29.85;;
22711;SDS011;11523;50.390;8.072;2024-01-11T01:25:31;58.40;;;30.33;;
22711;SDS011;11523;50.390;8.072;2024-01-11T01:27:57;56.83;;;29.30;;
22711;SDS011;11523;50.390;8.072;2024-01-11T01:30:25;58.80;;;30.10;;
22711;SDS011;11523;50.390;8.072;2024-01-11T01:32:51;58.08;;;29.48;;
22711;SDS011;11523;50.390;8.072;2024-01-11T01:35:17;58.55;;;28.85;;
22711;SDS011;11523;50.390;8.072;2024-01-11T01:37:43;55.72;;;28.48;;
22711;SDS011;11523;50.390;8.072;2024-01-11T01:40:09;59.00;;;29.23;;
22711;SDS011;11523;50.390;8.072;2024-01-11T01:42:42;61.17;;;29.35;;
22711;SDS011;11523;50.390;8.072;2024-01-11T01:45:09;62.28;;;29.33;;
22711;SDS011;11523;50.390;8.072;2024-01-11T01:47:35;61.53;;;28.90;;
22711;SDS011;11523;50.390;8.072;2024-01-11T01:50:01;61.15;;;30.00;;
22711;SDS011;11523;50.390;8.072;2024-01-11T01:52:28;63.35;;;29.13;;
22711;SDS011;11523;50.390;8.072;2024-01-11T01:54:54;61.42;;;29.33;;
22711;SDS011;11523;50.390;8.072;2024-01-11T01:57:22;58.67;;;28.80;;
22711;SDS011;11523;50.390;8.072;2024-01-11T01:59:49;61.95;;;29.42;;
22711;SDS011;11523;50.390;8.072;2024-01-11T02:02:17;59.95;;;28.83;;
22711;SDS011;11523;50.390;8.072;2024-01-11T02:04:44;55.83;;;28.50;;
22711;SDS011;11523;50.390;8.072;2024-01-11T02:07:10;61.60;;;29.08;;
22711;SDS011;11523;50.390;8.072;2024-01-11T02:09:36;56.63;;;29.42;;
22711;SDS011;11523;50.390;8.072;2024-01-11T02:12:02;58.03;;;28.88;;
22711;SDS011;11523;50.390;8.072;2024-01-11T02:14:29;58.70;;;27.77;;
22711;SDS011;11523;50.390;8.072;2024-01-11T02:16:55;61.67;;;29.20;;
22711;SDS011;11523;50.390;8.072;2024-01-11T02:19:21;55.15;;;27.77;;
22711;SDS011;11523;50.390;8.072;2024-01-11T02:21:48;56.17;;;27.98;;
22711;SDS011;11523;50.390;8.072;2024-01-11T02:24:15;60.13;;;28.42;;
22711;SDS011;11523;50.390;8.072;2024-01-11T02:27:00;58.65;;;28.27;;
22711;SDS011;11523;50.390;8.072;2024-01-11T02:29:26;57.15;;;28.05;;
22711;SDS011;11523;50.390;8.072;2024-01-11T02:31:53;61.20;;;29.52;;
22711;SDS011;11523;50.390;8.072;2024-01-11T02:34:19;61.15;;;28.90;;
22711;SDS011;11523;50.390;8.072;2024-01-11T02:36:45;54.40;;;29.50;;
22711;SDS011;11523;50.390;8.072;2024-01-11T02:39:11;65.80;;;29.73;;
22711;SDS011;11523;50.390;8.072;2024-01-11T02:41:39;56.45;;;28.42;;
22711;SDS011;11523;50.390;8.072;2024-01-11T02:44:05;56.05;;;27.95;;
22711;SDS011;11523;50.390;8.072;2024-01-11T02:46:31;60.65;;;30.15;;
22711;SDS011;11523;50.390;8.072;2024-01-11T02:48:57;59.72;;;29.60;;
22711;SDS011;11523;50.390;8.072;2024-01-11T02:51:31;57.30;;;27.42;;
22711;SDS011;11523;50.390;8.072;2024-01-11T02:53:57;52.20;;;27.20;;
22711;SDS011;11523;50.390;8.072;2024-01-11T02:56:23;55.05;;;27.70;;
22711;SDS011;11523;50.390;8.072;2024-01-11T02:58:49;54.50;;;28.48;;
22711;SDS011;11523;50.390;8.072;2024-01-11T03:01:15;55.65;;;29.27;;
22711;SDS011;11523;50.390;8.072;2024-01-11T03:03:48;60.22;;;27.75;;
22711;SDS011;11523;50.390;8.072;2024-01-11T03:06:20;54.72;;;26.75;;
22711;SDS011;11523;50.390;8.072;2024-01-11T03:08:47;57.95;;;28.02;;
22711;SDS011;11523;50.390;8.072;2024-01-11T03:11:14;56.83;;;28.63;;
22711;SDS011;11523;50.390;8.072;2024-01-11T03:13:41;54.28;;;26.55;;
22711;SDS011;11523;50.390;8.072;2024-01-11T03:16:07;58.72;;;26.27;;
22711;SDS011;11523;50.390;8.072;2024-01-11T03:18:33;51.15;;;25.42;;
22711;SDS011;11523;50.390;8.072;2024-01-11T03:20:59;54.90;;;26.55;;
22711;SDS011;11523;50.390;8.072;2024-01-11T03:23:31;56.28;;;26.98;;
22711;SDS011;11523;50.390;8.072;2024-01-11T03:25:57;60.72;;;26.65;;
22711;SDS011;11523;50.390;8.072;2024-01-11T03:28:23;51.58;;;25.50;;
22711;SDS011;11523;50.390;8.072;2024-01-11T03:30:49;52.30;;;26.80;;
22711;SDS011;11523;50.390;8.072;2024-01-11T03:33:15;52.08;;;26.33;;
22711;SDS011;11523;50.390;8.072;2024-01-11T03:35:40;52.90;;;26.02;;
22711;SDS011;11523;50.390;8.072;2024-01-11T03:38:08;53.33;;;26.15;;
22711;SDS011;11523;50.390;8.072;2024-01-11T03:40:34;52.58;;;25.77;;
22711;SDS011;11523;50.390;8.072;2024-01-11T03:43:00;58.03;;;26.60;;
22711;SDS011;11523;50.390;8.072;2024-01-11T03:45:26;55.65;;;26.67;;
22711;SDS011;11523;50.390;8.072;2024-01-11T03:47:52;48.95;;;25.17;;
22711;SDS011;11523;50.390;8.072;2024-01-11T03:50:18;51.38;;;25.95;;
22711;SDS011;11523;50.390;8.072;2024-01-11T03:52:44;54.85;;;26.88;;
22711;SDS011;11523;50.390;8.072;2024-01-11T03:55:10;51.08;;;25.25;;
22711;SDS011;11523;50.390;8.072;2024-01-11T03:57:36;52.30;;;26.63;;
22711;SDS011;11523;50.390;8.072;2024-01-11T04:00:02;54.90;;;26.52;;
22711;SDS011;11523;50.390;8.072;2024-01-11T04:02:29;54.55;;;27.27;;
22711;SDS011;11523;50.390;8.072;2024-01-11T04:04:55;52.75;;;25.58;;
22711;SDS011;11523;50.390;8.072;2024-01-11T04:07:21;51.03;;;26.98;;
22711;SDS011;11523;50.390;8.072;2024-01-11T04:09:47;58.35;;;27.50;;
22711;SDS011;11523;50.390;8.072;2024-01-11T04:12:13;51.55;;;25.60;;
22711;SDS011;11523;50.390;8.072;2024-01-11T04:14:39;57.03;;;26.00;;
22711;SDS011;11523;50.390;8.072;2024-01-11T04:17:05;57.53;;;28.23;;
22711;SDS011;11523;50.390;8.072;2024-01-11T04:19:31;53.97;;;25.73;;
22711;SDS011;11523;50.390;8.072;2024-01-11T04:21:57;52.53;;;26.05;;
22711;SDS011;11523;50.390;8.072;2024-01-11T04:24:23;50.92;;;26.23;;
22711;SDS011;11523;50.390;8.072;2024-01-11T04:26:49;52.97;;;25.60;;
22711;SDS011;11523;50.390;8.072;2024-01-11T04:29:15;53.50;;;26.50;;
22711;SDS011;11523;50.390;8.072;2024-01-11T04:31:41;56.20;;;26.25;;
22711;SDS011;11523;50.390;8.072;2024-01-11T04:34:07;52.13;;;25.80;;
22711;SDS011;11523;50.390;8.072;2024-01-11T04:36:36;49.30;;;25.92;;
22711;SDS011;11523;50.390;8.072;2024-01-11T04:39:03;56.10;;;25.92;;
22711;SDS011;11523;50.390;8.072;2024-01-11T04:41:29;53.85;;;27.15;;
22711;SDS011;11523;50.390;8.072;2024-01-11T04:43:55;52.78;;;25.88;;
22711;SDS011;11523;50.390;8.072;2024-01-11T04:46:21;52.92;;;26.38;;
22711;SDS011;11523;50.390;8.072;2024-01-11T04:48:48;51.60;;;26.15;;
22711;SDS011;11523;50.390;8.072;2024-01-11T04:51:14;60.13;;;27.13;;
22711;SDS011;11523;50.390;8.072;2024-01-11T04:53:41;57.75;;;27.27;;
22711;SDS011;11523;50.390;8.072;2024-01-11T04:56:08;52.58;;;27.67;;
22711;SDS011;11523;50.390;8.072;2024-01-11T04:58:36;60.28;;;28.67;;
22711;SDS011;11523;50.390;8.072;2024-01-11T05:01:03;60.20;;;28.35;;
22711;SDS011;11523;50.390;8.072;2024-01-11T05:03:29;56.05;;;27.63;;
22711;SDS011;11523;50.390;8.072;2024-01-11T05:05:56;59.28;;;27.83;;
22711;SDS011;11523;50.390;8.072;2024-01-11T05:08:22;56.40;;;27.38;;
22711;SDS011;11523;50.390;8.072;2024-01-11T05:10:48;56.72;;;28.95;;
22711;SDS011;11523;50.390;8.072;2024-01-11T05:13:14;51.55;;;27.13;;
22711;SDS011;11523;50.390;8.072;2024-01-11T05:15:40;56.83;;;28.25;;
22711;SDS011;11523;50.390;8.072;2024-01-11T05:18:06;60.67;;;28.58;;
22711;SDS011;11523;50.390;8.072;2024-01-11T05:20:32;61.42;;;29.08;;
22711;SDS011;11523;50.390;8.072;2024-01-11T05:22:58;65.15;;;28.80;;
22711;SDS011;11523;50.390;8.072;2024-01-11T05:25:25;58.40;;;29.17;;
22711;SDS011;11523;50.390;8.072;2024-01-11T05:27:51;56.55;;;27.92;;
22711;SDS011;11523;50.390;8.072;2024-01-11T05:30:17;60.15;;;28.17;;
22711;SDS011;11523;50.390;8.072;2024-01-11T05:32:43;56.10;;;27.38;;
22711;SDS011;11523;50.390;8.072;2024-01-11T05:35:09;58.63;;;27.48;;
22711;SDS011;11523;50.390;8.072;2024-01-11T05:37:35;55.45;;;27.40;;
22711;SDS011;11523;50.390;8.072;2024-01-11T05:40:02;57.10;;;27.52;;
22711;SDS011;11523;50.390;8.072;2024-01-11T05:42:34;56.63;;;27.42;;
22711;SDS011;11523;50.390;8.072;2024-01-11T05:45:00;57.47;;;29.13;;
22711;SDS011;11523;50.390;8.072;2024-01-11T05:47:26;53.92;;;28.95;;
22711;SDS011;11523;50.390;8.072;2024-01-11T05:49:52;55.35;;;28.30;;
22711;SDS011;11523;50.390;8.072;2024-01-11T05:52:18;51.30;;;26.83;;
22711;SDS011;11523;50.390;8.072;2024-01-11T05:54:44;53.28;;;26.92;;
22711;SDS011;11523;50.390;8.072;2024-01-11T05:57:10;56.08;;;28.52;;
22711;SDS011;11523;50.390;8.072;2024-01-11T05:59:36;55.97;;;27.10;;
22711;SDS011;11523;50.390;8.072;2024-01-11T06:02:02;52.15;;;26.27;;
22711;SDS011;11523;50.390;8.072;2024-01-11T06:04:28;49.88;;;25.13;;
22711;SDS011;11523;50.390;8.072;2024-01-11T06:06:54;56.92;;;26.35;;
22711;SDS011;11523;50.390;8.072;2024-01-11T06:09:20;51.03;;;25.33;;
22711;SDS011;11523;50.390;8.072;2024-01-11T06:11:46;51.85;;;25.65;;
22711;SDS011;11523;50.390;8.072;2024-01-11T06:14:12;49.63;;;23.92;;
22711;SDS011;11523;50.390;8.072;2024-01-11T06:16:40;47.28;;;24.55;;
22711;SDS011;11523;50.390;8.072;2024-01-11T06:19:06;50.67;;;25.33;;
22711;SDS011;11523;50.390;8.072;2024-01-11T06:21:32;53.45;;;25.40;;
22711;SDS011;11523;50.390;8.072;2024-01-11T06:23:58;60.17;;;24.08;;
22711;SDS011;11523;50.390;8.072;2024-01-11T06:26:24;50.70;;;25.98;;
22711;SDS011;11523;50.390;8.072;2024-01-11T06:28:50;47.05;;;25.00;;
22711;SDS011;11523;50.390;8.072;2024-01-11T06:31:16;48.75;;;25.30;;
22711;SDS011;11523;50.390;8.072;2024-01-11T06:33:42;57.97;;;26.65;;
22711;SDS011;11523;50.390;8.072;2024-01-11T06:36:08;53.35;;;26.17;;
22711;SDS011;11523;50.390;8.072;2024-01-11T06:38:34;56.95;;;27.15;;
22711;SDS011;11523;50.390;8.072;2024-01-11T06:41:00;58.40;;;26.90;;
22711;SDS011;11523;50.390;8.072;2024-01-11T06:43:26;51.25;;;26.30;;
22711;SDS011;11523;50.390;8.072;2024-01-11T06:45:52;52.20;;;26.27;;
22711;SDS011;11523;50.390;8.072;2024-01-11T06:48:19;53.40;;;26.42;;
22711;SDS011;11523;50.390;8.072;2024-01-11T06:50:45;54.75;;;27.35;;
22711;SDS011;11523;50.390;8.072;2024-01-11T06:53:11;55.90;;;26.23;;
22711;SDS011;11523;50.390;8.072;2024-01-11T06:55:37;51.42;;;25.40;;
22711;SDS011;11523;50.390;8.072;2024-01-11T06:58:03;53.25;;;25.38;;
22711;SDS011;11523;50.390;8.072;2024-01-11T07:00:29;50.38;;;24.02;;
22711;SDS011;11523;50.390;8.072;2024-01-11T07:02:55;47.83;;;24.35;;
22711;SDS011;11523;50.390;8.072;2024-01-11T07:05:21;52.97;;;25.70;;
22711;SDS011;11523;50.390;8.072;2024-01-11T07:07:47;52.17;;;25.65;;
22711;SDS011;11523;50.390;8.072;2024-01-11T07:10:13;49.10;;;24.45;;
22711;SDS011;11523;50.390;8.072;2024-01-11T07:12:39;49.53;;;23.98;;
22711;SDS011;11523;50.390;8.072;2024-01-11T07:15:07;49.35;;;23.80;;
22711;SDS011;11523;50.390;8.072;2024-01-11T07:17:34;46.65;;;23.40;;
22711;SDS011;11523;50.390;8.072;2024-01-11T07:20:00;44.88;;;24.38;;
22711;SDS011;11523;50.390;8.072;2024-01-11T07:22:25;46.08;;;23.63;;
22711;SDS011;11523;50.390;8.072;2024-01-11T07:24:52;47.75;;;24.25;;
22711;SDS011;11523;50.390;8.072;2024-01-11T07:27:18;47.47;;;24.88;;
22711;SDS011;11523;50.390;8.072;2024-01-11T07:29:44;48.30;;;23.52;;
22711;SDS011;11523;50.390;8.072;2024-01-11T07:32:09;52.13;;;25.92;;
22711;SDS011;11523;50.390;8.072;2024-01-11T07:34:35;48.15;;;24.50;;
22711;SDS011;11523;50.390;8.072;2024-01-11T07:37:01;51.47;;;24.52;;
22711;SDS011;11523;50.390;8.072;2024-01-11T07:39:27;54.78;;;24.30;;
22711;SDS011;11523;50.390;8.072;2024-01-11T07:41:55;54.47;;;24.23;;
22711;SDS011;11523;50.390;8.072;2024-01-11T07:44:21;54.55;;;24.77;;
22711;SDS011;11523;50.390;8.072;2024-01-11T07:46:48;52.65;;;25.17;;
22711;SDS011;11523;50.390;8.072;2024-01-11T07:49:14;56.53;;;25.15;;
22711;SDS011;11523;50.390;8.072;2024-01-11T07:51:40;59.85;;;25.20;;
22711;SDS011;11523;50.390;8.072;2024-01-11T07:54:06;49.92;;;25.45;;
22711;SDS011;11523;50.390;8.072;2024-01-11T07:56:32;55.22;;;25.77;;
22711;SDS011;11523;50.390;8.072;2024-01-11T07:58:58;52.85;;;26.13;;
22711;SDS011;11523;50.390;8.072;2024-01-11T08:01:24;57.33;;;25.88;;
22711;SDS011;11523;50.390;8.072;2024-01-11T08:03:50;52.95;;;26.92;;
22711;SDS011;11523;50.390;8.072;2024-01-11T08:06:17;54.10;;;26.05;;
22711;SDS011;11523;50.390;8.072;2024-01-11T08:08:43;56.40;;;24.60;;
22711;SDS011;11523;50.390;8.072;2024-01-11T08:11:09;50.53;;;25.95;;
22711;SDS011;11523;50.390;8.072;2024-01-11T08:13:38;55.40;;;24.90;;
22711;SDS011;11523;50.390;8.072;2024-01-11T08:16:04;58.80;;;26.20;;
22711;SDS011;11523;50.390;8.072;2024-01-11T08:18:34;50.67;;;25.00;;
22711;SDS011;11523;50.390;8.072;2024-01-11T08:21:00;56.92;;;25.20;;
22711;SDS011;11523;50.390;8.072;2024-01-11T08:23:26;53.78;;;27.30;;
22711;SDS011;11523;50.390;8.072;2024-01-11T08:25:52;58.75;;;28.27;;
22711;SDS011;11523;50.390;8.072;2024-01-11T08:28:18;49.47;;;26.25;;
22711;SDS011;11523;50.390;8.072;2024-01-11T08:30:45;54.65;;;26.75;;
22711;SDS011;11523;50.390;8.072;2024-01-11T08:33:17;51.58;;;25.90;;
22711;SDS011;11523;50.390;8.072;2024-01-11T08:35:43;55.90;;;26.80;;
22711;SDS011;11523;50.390;8.072;2024-01-11T08:38:09;61.65;;;29.55;;
22711;SDS011;11523;50.390;8.072;2024-01-11T08:40:35;65.28;;;30.63;;
22711;SDS011;11523;50.390;8.072;2024-01-11T08:43:01;69.95;;;31.40;;
22711;SDS011;11523;50.390;8.072;2024-01-11T08:45:28;62.65;;;32.00;;
22711;SDS011;11523;50.390;8.072;2024-01-11T08:47:55;64.43;;;32.60;;
22711;SDS011;11523;50.390;8.072;2024-01-11T08:50:21;65.13;;;34.20;;
22711;SDS011;11523;50.390;8.072;2024-01-11T08:52:47;59.78;;;32.65;;
22711;SDS011;11523;50.390;8.072;2024-01-11T08:55:13;65.50;;;31.70;;
22711;SDS011;11523;50.390;8.072;2024-01-11T08:57:39;62.13;;;31.23;;
22711;SDS011;11523;50.390;8.072;2024-01-11T09:00:06;53.83;;;27.90;;
22711;SDS011;11523;50.390;8.072;2024-01-11T09:02:32;60.05;;;28.92;;
22711;SDS011;11523;50.390;8.072;2024-01-11T09:04:58;53.95;;;27.17;;
22711;SDS011;11523;50.390;8.072;2024-01-11T09:07:24;61.38;;;29.95;;
22711;SDS011;11523;50.390;8.072;2024-01-11T09:09:50;65.72;;;29.60;;
22711;SDS011;11523;50.390;8.072;2024-01-11T09:12:16;61.67;;;29.67;;
22711;SDS011;11523;50.390;8.072;2024-01-11T09:14:42;53.95;;;27.35;;
22711;SDS011;11523;50.390;8.072;2024-01-11T09:17:08;59.50;;;30.77;;
22711;SDS011;11523;50.390;8.072;2024-01-11T09:19:34;57.92;;;27.08;;
22711;SDS011;11523;50.390;8.072;2024-01-11T09:22:02;50.22;;;28.30;;
22711;SDS011;11523;50.390;8.072;2024-01-11T09:24:35;58.22;;;28.38;;
22711;SDS011;11523;50.390;8.072;2024-01-11T09:27:01;57.08;;;30.83;;
22711;SDS011;11523;50.390;8.072;2024-01-11T09:29:29;55.15;;;29.23;;
22711;SDS011;11523;50.390;8.072;2024-01-11T09:31:54;57.22;;;29.55;;
22711;SDS011;11523;50.390;8.072;2024-01-11T09:34:20;55.75;;;28.50;;
22711;SDS011;11523;50.390;8.072;2024-01-11T09:36:47;52.20;;;27.27;;
22711;SDS011;11523;50.390;8.072;2024-01-11T09:39:12;54.45;;;29.10;;
22711;SDS011;11523;50.390;8.072;2024-01-11T09:41:40;56.72;;;28.02;;
22711;SDS011;11523;50.390;8.072;2024-01-11T09:44:08;61.42;;;25.83;;
22711;SDS011;11523;50.390;8.072;2024-01-11T09:46:34;58.78;;;30.30;;
22711;SDS011;11523;50.390;8.072;2024-01-11T09:49:00;60.35;;;30.33;;
22711;SDS011;11523;50.390;8.072;2024-01-11T09:51:26;54.75;;;28.50;;
22711;SDS011;11523;50.390;8.072;2024-01-11T09:53:53;53.33;;;29.65;;
22711;SDS011;11523;50.390;8.072;2024-01-11T09:56:23;53.42;;;28.80;;
22711;SDS011;11523;50.390;8.072;2024-01-11T09:58:50;53.75;;;29.30;;
22711;SDS011;11523;50.390;8.072;2024-01-11T10:01:16;56.85;;;29.15;;
22711;SDS011;11523;50.390;8.072;2024-01-11T10:03:43;57.88;;;32.40;;
22711;SDS011;11523;50.390;8.072;2024-01-11T10:06:11;56.88;;;30.42;;
22711;SDS011;11523;50.390;8.072;2024-01-11T10:08:37;56.80;;;31.02;;
22711;SDS011;11523;50.390;8.072;2024-01-11T10:11:03;57.38;;;29.77;;
22711;SDS011;11523;50.390;8.072;2024-01-11T10:13:30;55.00;;;31.05;;
22711;SDS011;11523;50.390;8.072;2024-01-11T10:16:06;53.95;;;29.92;;
22711;SDS011;11523;50.390;8.072;2024-01-11T10:18:33;56.83;;;29.88;;
22711;SDS011;11523;50.390;8.072;2024-01-11T10:20:59;63.40;;;29.80;;
22711;SDS011;11523;50.390;8.072;2024-01-11T10:23:25;50.53;;;29.27;;
22711;SDS011;11523;50.390;8.072;2024-01-11T10:25:53;53.65;;;30.02;;
22711;SDS011;11523;50.390;8.072;2024-01-11T10:28:19;54.13;;;30.75;;
22711;SDS011;11523;50.390;8.072;2024-01-11T10:30:45;52.50;;;30.27;;
22711;SDS011;11523;50.390;8.072;2024-01-11T10:33:12;57.53;;;29.50;;
22711;SDS011;11523;50.390;8.072;2024-01-11T10:35:37;52.10;;;29.40;;
22711;SDS011;11523;50.390;8.072;2024-01-11T10:38:05;58.45;;;31.65;;
22711;SDS011;11523;50.390;8.072;2024-01-11T10:40:34;54.97;;;32.58;;
22711;SDS011;11523;50.390;8.072;2024-01-11T10:43:00;53.90;;;30.38;;
22711;SDS011;11523;50.390;8.072;2024-01-11T10:45:26;50.60;;;30.95;;
22711;SDS011;11523;50.390;8.072;2024-01-11T10:47:56;54.05;;;30.40;;
22711;SDS011;11523;50.390;8.072;2024-01-11T10:50:26;50.35;;;28.38;;
22711;SDS011;11523;50.390;8.072;2024-01-11T10:53:02;50.88;;;28.70;;
22711;SDS011;11523;50.390;8.072;2024-01-11T10:55:28;46.50;;;27.45;;
22711;SDS011;11523;50.390;8.072;2024-01-11T10:57:56;50.65;;;27.52;;
22711;SDS011;11523;50.390;8.072;2024-01-11T11:00:23;50.95;;;26.40;;
22711;SDS011;11523;50.390;8.072;2024-01-11T11:02:50;43.90;;;27.35;;
22711;SDS011;11523;50.390;8.072;2024-01-11T11:05:25;48.10;;;27.15;;
22711;SDS011;11523;50.390;8.072;2024-01-11T11:07:51;49.42;;;27.65;;
22711;SDS011;11523;50.390;8.072;2024-01-11T11:10:18;43.90;;;25.80;;
22711;SDS011;11523;50.390;8.072;2024-01-11T11:12:45;48.22;;;27.75;;
22711;SDS011;11523;50.390;8.072;2024-01-11T11:15:12;43.05;;;25.98;;
22711;SDS011;11523;50.390;8.072;2024-01-11T11:17:42;47.83;;;26.35;;
22711;SDS011;11523;50.390;8.072;2024-01-11T11:20:11;45.28;;;27.67;;
22711;SDS011;11523;50.390;8.072;2024-01-11T11:22:37;49.25;;;27.00;;
22711;SDS011;11523;50.390;8.072;2024-01-11T11:25:09;44.15;;;25.70;;
22711;SDS011;11523;50.390;8.072;2024-01-11T11:27:35;44.40;;;24.63;;
22711;SDS011;11523;50.390;8.072;2024-01-11T11:30:02;41.22;;;24.50;;
22711;SDS011;11523;50.390;8.072;2024-01-11T11:32:36;38.90;;;24.75;;
22711;SDS011;11523;50.390;8.072;2024-01-11T11:35:02;47.40;;;27.02;;
22711;SDS011;11523;50.390;8.072;2024-01-11T11:37:29;39.58;;;24.33;;
22711;SDS011;11523;50.390;8.072;2024-01-11T11:39:57;42.70;;;24.30;;
22711;SDS011;11523;50.390;8.072;2024-01-11T11:42:23;43.90;;;24.40;;
22711;SDS011;11523;50.390;8.072;2024-01-11T11:44:57;43.30;;;24.70;;
22711;SDS011;11523;50.390;8.072;2024-01-11T11:47:23;40.72;;;24.50;;
22711;SDS011;11523;50.390;8.072;2024-01-11T11:52:34;41.95;;;26.90;;
22711;SDS011;11523;50.390;8.072;2024-01-11T11:55:01;41.30;;;26.42;;
22711;SDS011;11523;50.390;8.072;2024-01-11T11:57:27;43.60;;;25.75;;
22711;SDS011;11523;50.390;8.072;2024-01-11T11:59:55;35.45;;;23.42;;
22711;SDS011;11523;50.390;8.072;2024-01-11T12:02:22;41.65;;;25.35;;
22711;SDS011;11523;50.390;8.072;2024-01-11T12:04:48;40.67;;;24.38;;
22711;SDS011;11523;50.390;8.072;2024-01-11T12:07:14;37.78;;;23.60;;
22711;SDS011;11523;50.390;8.072;2024-01-11T12:09:41;36.97;;;24.38;;
22711;SDS011;11523;50.390;8.072;2024-01-11T12:12:07;40.88;;;25.52;;
22711;SDS011;11523;50.390;8.072;2024-01-11T12:14:33;41.17;;;24.42;;
22711;SDS011;11523;50.390;8.072;2024-01-11T12:17:00;35.90;;;24.15;;
22711;SDS011;11523;50.390;8.072;2024-01-11T12:19:26;38.95;;;25.38;;
22711;SDS011;11523;50.390;8.072;2024-01-11T12:21:52;41.88;;;23.85;;
22711;SDS011;11523;50.390;8.072;2024-01-11T12:24:18;42.50;;;24.60;;
22711;SDS011;11523;50.390;8.072;2024-01-11T12:26:46;41.65;;;23.77;;
22711;SDS011;11523;50.390;8.072;2024-01-11T12:29:12;39.58;;;24.55;;
22711;SDS011;11523;50.390;8.072;2024-01-11T12:31:39;37.30;;;23.50;;
22711;SDS011;11523;50.390;8.072;2024-01-11T12:34:05;38.95;;;24.55;;
22711;SDS011;11523;50.390;8.072;2024-01-11T12:36:31;37.50;;;23.23;;
22711;SDS011;11523;50.390;8.072;2024-01-11T12:38:57;37.63;;;25.60;;
22711;SDS011;11523;50.390;8.072;2024-01-11T12:41:23;41.88;;;25.00;;
22711;SDS011;11523;50.390;8.072;2024-01-11T12:43:49;38.33;;;23.08;;
22711;SDS011;11523;50.390;8.072;2024-01-11T12:46:15;45.13;;;25.25;;
22711;SDS011;11523;50.390;8.072;2024-01-11T12:48:42;40.65;;;25.35;;
22711;SDS011;11523;50.390;8.072;2024-01-11T12:51:08;44.55;;;25.50;;
22711;SDS011;11523;50.390;8.072;2024-01-11T12:53:35;41.80;;;24.20;;
22711;SDS011;11523;50.390;8.072;2024-01-11T12:56:02;40.92;;;23.58;;
22711;SDS011;11523;50.390;8.072;2024-01-11T12:58:28;35.58;;;23.17;;
22711;SDS011;11523;50.390;8.072;2024-01-11T13:00:54;33.90;;;22.35;;
22711;SDS011;11523;50.390;8.072;2024-01-11T13:03:22;34.05;;;22.02;;
22711;SDS011;11523;50.390;8.072;2024-01-11T13:05:48;38.92;;;23.65;;
22711;SDS011;11523;50.390;8.072;2024-01-11T13:08:14;38.28;;;22.77;;
22711;SDS011;11523;50.390;8.072;2024-01-11T13:10:40;39.42;;;21.17;;
22711;SDS011;11523;50.390;8.072;2024-01-11T13:13:06;34.15;;;22.98;;
22711;SDS011;11523;50.390;8.072;2024-01-11T13:15:33;36.92;;;23.67;;
22711;SDS011;11523;50.390;8.072;2024-01-11T13:18:02;39.25;;;22.88;;
22711;SDS011;11523;50.390;8.072;2024-01-11T13:20:28;37.28;;;22.80;;
22711;SDS011;11523;50.390;8.072;2024-01-11T13:25:42;35.60;;;23.15;;
22711;SDS011;11523;50.390;8.072;2024-01-11T13:28:09;34.20;;;22.67;;
22711;SDS011;11523;50.390;8.072;2024-01-11T13:30:37;35.55;;;22.38;;
22711;SDS011;11523;50.390;8.072;2024-01-11T13:33:04;35.05;;;22.00;;
22711;SDS011;11523;50.390;8.072;2024-01-11T13:35:30;38.05;;;23.58;;
22711;SDS011;11523;50.390;8.072;2024-01-11T13:37:55;35.35;;;23.05;;
22711;SDS011;11523;50.390;8.072;2024-01-11T13:40:21;34.55;;;23.65;;
22711;SDS011;11523;50.390;8.072;2024-01-11T13:42:47;39.83;;;23.67;;
22711;SDS011;11523;50.390;8.072;2024-01-11T13:45:13;41.58;;;23.85;;
22711;SDS011;11523;50.390;8.072;2024-01-11T13:47:39;38.92;;;23.35;;
22711;SDS011;11523;50.390;8.072;2024-01-11T13:50:05;35.42;;;24.52;;
22711;SDS011;11523;50.390;8.072;2024-01-11T13:52:32;38.28;;;24.73;;
22711;SDS011;11523;50.390;8.072;2024-01-11T13:54:58;40.08;;;23.20;;
22711;SDS011;11523;50.390;8.072;2024-01-11T13:57:25;38.08;;;24.48;;
22711;SDS011;11523;50.390;8.072;2024-01-11T13:59:51;36.70;;;23.70;;
22711;SDS011;11523;50.390;8.072;2024-01-11T14:02:17;37.42;;;24.58;;
22711;SDS011;11523;50.390;8.072;2024-01-11T14:04:43;36.95;;;23.75;;
22711;SDS011;11523;50.390;8.072;2024-01-11T14:07:09;39.03;;;24.42;;
22711;SDS011;11523;50.390;8.072;2024-01-11T14:09:35;38.42;;;24.02;;
22711;SDS011;11523;50.390;8.072;2024-01-11T14:12:01;33.40;;;22.42;;
22711;SDS011;11523;50.390;8.072;2024-01-11T14:14:27;37.33;;;23.67;;
22711;SDS011;11523;50.390;8.072;2024-01-11T14:16:52;36.70;;;23.73;;
22711;SDS011;11523;50.390;8.072;2024-01-11T14:19:18;34.88;;;23.25;;
22711;SDS011;11523;50.390;8.072;2024-01-11T14:21:44;36.08;;;22.20;;